Time;durP1;ratioP1;P1;durP2;ratioP2;P2;SDS_P1;SDS_P2;PMS_P1;PMS_P2;Temp;Humidity;BMP_temperature;BMP_pressure;BME280_temperature;BME280_humidity;BME280_pressure;Samples;Min_cycle;Max_cycle;Signal;HPM_P1;HPM_P2
2021/03/09 00:02:21;;;;;;;9.95;3.28;;;;;;;3.18;66.07;101507.94;4979822;28;20030;-73
2021/03/09 00:04:46;;;;;;;7.20;3.30;;;;;;;3.24;65.53;101511.34;4984999;28;20065;-76
2021/03/09 00:07:12;;;;;;;8.18;3.78;;;;;;;3.18;66.65;101505.28;4988610;28;20615;-76
2021/03/09 00:09:37;;;;;;;7.28;3.65;;;;;;;3.32;65.14;101511.50;4990670;28;20041;-77
2021/03/09 00:12:03;;;;;;;7.38;3.13;;;;;;;3.17;65.89;101501.06;4983255;28;20030;-76
2021/03/09 00:14:28;;;;;;;6.35;3.40;;;;;;;3.19;66.96;101508.75;4989558;28;20030;-76
2021/03/09 00:16:54;;;;;;;9.90;3.28;;;;;;;3.20;67.16;101510.31;4992525;28;20644;-76
2021/03/09 00:19:19;;;;;;;11.05;3.58;;;;;;;3.14;67.38;101512.25;4990724;28;20093;-76
2021/03/09 00:21:44;;;;;;;5.82;3.10;;;;;;;2.97;68.19;101506.59;4999256;28;20121;-75
2021/03/09 00:24:10;;;;;;;6.72;3.40;;;;;;;3.08;67.63;101500.06;4991844;28;20035;-76
2021/03/09 00:26:35;;;;;;;8.23;3.45;;;;;;;3.13;67.81;101509.88;4991444;28;20041;-76
2021/03/09 00:29:01;;;;;;;7.28;2.88;;;;;;;3.08;68.35;101504.63;4995476;28;20026;-75
2021/03/09 00:31:26;;;;;;;8.07;3.30;;;;;;;2.99;68.67;101506.31;5002484;28;20530;-76
2021/03/09 00:33:52;;;;;;;7.10;3.50;;;;;;;3.06;69.26;101504.13;4992170;28;20402;-75
2021/03/09 00:36:17;;;;;;;6.68;3.20;;;;;;;3.14;68.35;101506.94;4985019;28;20081;-75
2021/03/09 00:38:42;;;;;;;6.53;3.55;;;;;;;3.00;68.88;101498.03;4981210;28;20031;-75
2021/03/09 00:41:08;;;;;;;6.65;3.50;;;;;;;3.05;68.94;101491.88;4989269;28;20030;-75
2021/03/09 00:43:33;;;;;;;9.30;3.88;;;;;;;2.97;68.93;101495.16;4987340;28;20038;-75
2021/03/09 00:45:59;;;;;;;12.23;3.72;;;;;;;2.91;68.55;101490.97;4978110;28;20050;-75
2021/03/09 00:48:24;;;;;;;6.30;2.88;;;;;;;2.94;69.07;101485.09;4980596;28;20038;-75
2021/03/09 00:50:49;;;;;;;7.68;3.45;;;;;;;2.88;68.52;101489.69;4989049;28;20034;-75
2021/03/09 00:53:15;;;;;;;4.82;3.15;;;;;;;3.01;68.77;101480.22;4991333;28;20371;-75
2021/03/09 00:55:41;;;;;;;6.68;3.28;;;;;;;3.03;67.93;101481.53;4985901;28;20026;-75
2021/03/09 00:58:06;;;;;;;6.88;3.33;;;;;;;2.91;67.99;101480.31;4989930;28;20513;-75
2021/03/09 01:00:32;;;;;;;6.45;3.40;;;;;;;3.03;67.58;101470.09;4991752;28;20038;-75
2021/03/09 01:02:57;;;;;;;7.90;3.70;;;;;;;3.08;66.74;101468.16;4981799;28;20554;-75
2021/03/09 01:05:23;;;;;;;7.63;3.28;;;;;;;3.14;66.68;101472.34;4990187;28;20037;-75
2021/03/09 01:07:49;;;;;;;10.90;3.67;;;;;;;3.20;66.80;101459.75;4991726;28;20038;-75
2021/03/09 01:10:17;;;;;;;8.88;3.50;;;;;;;3.29;65.35;101461.50;4986537;28;20184;-75
2021/03/09 01:12:42;;;;;;;5.55;2.53;;;;;;;3.42;63.51;101454.69;4975881;28;20403;-75
2021/03/09 01:15:09;;;;;;;4.88;3.05;;;;;;;3.42;63.04;101457.34;4990955;28;20042;-75
2021/03/09 01:17:35;;;;;;;6.00;2.65;;;;;;;3.28;62.55;101459.13;4981783;28;20042;-75
2021/03/09 01:20:01;;;;;;;5.28;2.65;;;;;;;3.30;62.23;101449.78;4989216;28;20030;-75
2021/03/09 01:22:27;;;;;;;3.80;2.30;;;;;;;3.24;61.14;101440.28;4993902;28;20042;-75
2021/03/09 01:24:52;;;;;;;4.43;2.60;;;;;;;3.14;59.72;101443.06;4992083;28;20046;-75
2021/03/09 01:27:18;;;;;;;5.05;2.95;;;;;;;3.35;60.28;101439.06;4981425;28;20438;-75
2021/03/09 01:29:44;;;;;;;4.28;2.22;;;;;;;3.44;60.22;101437.38;4989272;28;20427;-75
2021/03/09 01:32:10;;;;;;;7.00;2.50;;;;;;;3.38;60.73;101435.06;4995362;28;20039;-74
2021/03/09 01:34:36;;;;;;;4.60;2.13;;;;;;;3.28;59.41;101433.31;4989919;28;20431;-75
2021/03/09 01:37:03;;;;;;;4.53;2.53;;;;;;;3.30;59.03;101431.16;4989208;28;20034;-75
2021/03/09 01:39:28;;;;;;;4.22;2.00;;;;;;;3.27;57.97;101429.06;4989361;28;20058;-76
2021/03/09 01:41:54;;;;;;;3.85;2.13;;;;;;;3.37;58.58;101422.81;4985671;28;20026;-75
2021/03/09 01:44:19;;;;;;;3.85;2.25;;;;;;;3.39;59.82;101424.13;4989889;28;20030;-76
2021/03/09 01:46:46;;;;;;;3.83;2.10;;;;;;;3.48;58.86;101418.94;4990197;28;20137;-77
2021/03/09 01:49:14;;;;;;;4.25;1.90;;;;;;;3.50;58.88;101416.78;4991006;28;20022;-76
2021/03/09 01:51:43;;;;;;;3.80;2.05;;;;;;;3.47;58.63;101412.03;4990735;28;20038;-76
2021/03/09 01:54:10;;;;;;;4.13;2.03;;;;;;;3.62;58.49;101412.59;5007566;28;20045;-76
2021/03/09 01:56:36;;;;;;;3.28;2.03;;;;;;;3.55;58.75;101401.53;4984865;28;20407;-77
2021/03/09 01:59:02;;;;;;;3.35;2.00;;;;;;;3.51;58.25;101408.50;4983397;28;20030;-77
2021/03/09 02:01:27;;;;;;;7.15;2.30;;;;;;;3.41;58.85;101402.53;4989731;28;20069;-74
2021/03/09 02:03:53;;;;;;;3.85;2.30;;;;;;;3.61;58.53;101396.91;4982932;28;20113;-77
2021/03/09 02:06:18;;;;;;;5.65;2.20;;;;;;;3.55;58.99;101390.88;4985420;28;20090;-76
2021/03/09 02:08:45;;;;;;;4.70;2.30;;;;;;;3.44;58.93;101396.66;4989261;28;20541;-76
2021/03/09 02:11:35;;;;;;;4.53;2.20;;;;;;;3.47;59.73;101388.88;4989606;28;20360;-77
2021/03/09 02:14:23;;;;;;;3.15;2.13;;;;;;;3.37;58.37;101386.34;4990689;28;20046;-76
2021/03/09 02:17:10;;;;;;;2.65;1.92;;;;;;;3.42;59.05;101380.16;4980940;28;20563;-76
2021/03/09 02:20:09;;;;;;;4.53;1.92;;;;;;;3.51;59.82;101381.88;4989228;28;20126;-76
2021/03/09 02:22:53;;;;;;;4.00;1.60;;;;;;;3.46;58.94;101381.97;4985914;28;20034;-76
2021/03/09 02:25:56;;;;;;;4.20;1.95;;;;;;;3.51;57.81;101357.94;4990906;28;20068;-77
2021/03/09 02:28:57;;;;;;;6.13;1.95;;;;;;;3.67;57.33;101364.59;4986162;23;20455;-76
2021/03/09 02:31:27;;;;;;;3.47;1.70;;;;;;;3.59;56.86;101367.91;4983503;28;20519;-76
2021/03/09 02:34:06;;;;;;;3.08;1.80;;;;;;;3.62;56.58;101370.00;4973035;28;20045;-73
2021/03/09 02:36:32;;;;;;;4.85;1.50;;;;;;;3.42;54.86;101367.66;4969547;28;20113;-73
2021/03/09 02:39:01;;;;;;;3.00;1.60;;;;;;;3.68;55.05;101360.84;4967728;28;20035;-74
2021/03/09 02:41:29;;;;;;;2.13;1.38;;;;;;;3.76;54.38;101353.25;4970500;28;20034;-73
2021/03/09 02:43:56;;;;;;;2.25;1.40;;;;;;;3.86;54.13;101347.78;4968619;28;20034;-73
2021/03/09 02:46:28;;;;;;;5.65;1.77;;;;;;;3.88;53.61;101351.72;4971673;28;20045;-73
2021/03/09 02:48:54;;;;;;;3.45;1.77;;;;;;;3.57;53.51;101348.00;4964291;28;20121;-74
2021/03/09 02:51:25;;;;;;;2.60;1.45;;;;;;;3.70;54.16;101346.47;4971617;28;20035;-73
2021/03/09 02:53:54;;;;;;;3.22;1.90;;;;;;;3.72;53.19;101339.75;4976050;28;20031;-73
2021/03/09 02:56:22;;;;;;;3.45;1.40;;;;;;;3.74;53.09;101342.13;4972498;28;20082;-73
2021/03/09 02:58:51;;;;;;;1.95;1.52;;;;;;;3.44;53.57;101340.75;4972436;28;20503;-73
2021/03/09 03:01:19;;;;;;;2.38;1.60;;;;;;;3.65;53.96;101344.66;4951013;28;20039;-74
2021/03/09 03:03:47;;;;;;;2.42;1.70;;;;;;;3.63;52.98;101334.31;4972117;28;20041;-74
2021/03/09 03:06:14;;;;;;;3.40;1.65;;;;;;;3.70;53.45;101344.56;4972028;28;20050;-74
2021/03/09 03:08:41;;;;;;;2.05;1.48;;;;;;;3.60;53.45;101336.78;4984693;28;20084;-73
2021/03/09 03:11:08;;;;;;;3.83;1.67;;;;;;;3.77;53.22;101328.22;4970797;28;20031;-74
2021/03/09 03:13:34;;;;;;;2.47;1.63;;;;;;;3.58;53.69;101331.72;4973684;28;20043;-75
2021/03/09 03:16:02;;;;;;;3.83;1.48;;;;;;;3.57;53.21;101329.34;4973665;28;20034;-75
2021/03/09 03:18:30;;;;;;;3.95;1.58;;;;;;;3.64;53.20;101330.56;4975294;28;20030;-73
2021/03/09 03:20:56;;;;;;;2.33;1.40;;;;;;;3.75;53.47;101322.41;4967184;28;20092;-75
2021/03/09 03:23:22;;;;;;;4.15;1.75;;;;;;;3.79;53.89;101320.75;4982147;28;20113;-75
2021/03/09 03:25:52;;;;;;;2.63;1.60;;;;;;;3.38;53.77;101324.06;4995091;28;20035;-75
2021/03/09 03:28:19;;;;;;;3.53;1.73;;;;;;;3.66;54.03;101327.59;4968121;28;20027;-75
2021/03/09 03:30:45;;;;;;;3.70;1.55;;;;;;;3.61;53.94;101317.84;4972203;28;20492;-74
2021/03/09 03:33:11;;;;;;;2.22;1.50;;;;;;;3.78;53.40;101324.47;4969017;28;20038;-75
2021/03/09 03:35:36;;;;;;;2.58;1.33;;;;;;;3.81;52.78;101329.22;4971876;28;20039;-75
2021/03/09 03:38:03;;;;;;;3.85;1.67;;;;;;;3.63;53.31;101329.00;4963682;28;20389;-75
2021/03/09 03:40:29;;;;;;;4.18;1.40;;;;;;;3.43;53.18;101323.19;4955071;28;20055;-75
2021/03/09 03:42:55;;;;;;;3.00;1.33;;;;;;;3.67;53.17;101322.00;4972575;28;20041;-74
2021/03/09 03:45:21;;;;;;;4.95;1.50;;;;;;;3.20;53.72;101330.19;4971017;28;20047;-74
2021/03/09 03:47:57;;;;;;;3.83;1.63;;;;;;;3.39;53.83;101328.28;4971719;28;20097;-75
2021/03/09 03:50:24;;;;;;;2.97;1.30;;;;;;;3.43;53.94;101325.84;4967285;28;20395;-75
2021/03/09 03:53:22;;;;;;;2.53;1.33;;;;;;;3.66;53.25;101333.72;4960774;28;20035;-75
2021/03/09 03:56:19;;;;;;;6.25;1.90;;;;;;;3.55;52.95;101320.88;4966027;28;20057;-75
2021/03/09 03:58:54;;;;;;;3.35;1.88;;;;;;;3.82;53.07;101326.25;4980002;28;20122;-75
2021/03/09 04:01:23;;;;;;;2.00;1.50;;;;;;;3.64;53.08;101317.25;4966142;28;20039;-75
2021/03/09 04:03:52;;;;;;;4.05;1.40;;;;;;;3.44;53.70;101314.13;4970673;28;20069;-75
2021/03/09 04:06:22;;;;;;;4.32;1.70;;;;;;;3.59;53.75;101311.22;4967200;28;20031;-75
2021/03/09 04:08:47;;;;;;;4.30;1.80;;;;;;;3.68;53.10;101312.13;4984216;28;20373;-75
2021/03/09 04:11:14;;;;;;;1.30;1.10;;;;;;;3.70;53.08;101317.94;4969600;28;20035;-75
2021/03/09 04:13:42;;;;;;;5.35;1.60;;;;;;;3.56;53.68;101317.13;4975268;28;20073;-75
2021/03/09 04:16:10;;;;;;;2.92;1.50;;;;;;;3.55;53.44;101308.34;4969700;28;20046;-75
2021/03/09 04:18:37;;;;;;;2.40;1.50;;;;;;;3.67;53.12;101306.03;4972433;28;20045;-75
2021/03/09 04:21:03;;;;;;;3.40;1.70;;;;;;;3.43;53.79;101312.53;4970727;28;20034;-74
2021/03/09 04:23:29;;;;;;;2.65;1.60;;;;;;;3.04;54.21;101312.09;4965391;28;20518;-75
2021/03/09 04:25:54;;;;;;;2.50;1.55;;;;;;;3.44;54.04;101309.59;4958411;28;20039;-74
2021/03/09 04:28:21;;;;;;;4.03;1.70;;;;;;;3.70;53.77;101311.84;4971290;28;20030;-74
2021/03/09 04:30:48;;;;;;;3.35;1.60;;;;;;;3.68;53.63;101310.25;4971155;28;20036;-74
2021/03/09 04:33:13;;;;;;;3.75;1.70;;;;;;;3.61;53.51;101312.50;4968738;28;20111;-74
2021/03/09 04:35:39;;;;;;;5.40;1.90;;;;;;;3.40;54.26;101308.59;4970326;28;20054;-74
2021/03/09 04:38:05;;;;;;;3.35;1.70;;;;;;;3.35;54.85;101327.28;4962027;28;20049;-74
2021/03/09 04:40:32;;;;;;;2.47;1.50;;;;;;;3.59;54.45;101312.00;4973315;28;20125;-75
2021/03/09 04:42:58;;;;;;;5.03;1.77;;;;;;;3.58;53.87;101310.41;4975650;28;20114;-75
2021/03/09 04:45:24;;;;;;;4.53;1.42;;;;;;;3.47;54.83;101314.34;4995468;28;20173;-75
2021/03/09 04:47:50;;;;;;;3.70;1.67;;;;;;;3.58;54.57;101310.41;4970634;28;20073;-75
2021/03/09 04:50:16;;;;;;;4.03;1.40;;;;;;;3.67;54.07;101310.56;4981575;28;20030;-74
2021/03/09 04:52:46;;;;;;;4.05;1.67;;;;;;;3.61;54.54;101309.84;4980626;28;20117;-75
2021/03/09 04:55:13;;;;;;;2.95;1.50;;;;;;;3.54;54.79;101316.63;4967659;28;20063;-75
2021/03/09 04:57:43;;;;;;;3.53;1.60;;;;;;;3.46;55.44;101310.09;4970902;28;20043;-75
2021/03/09 05:00:14;;;;;;;4.78;2.05;;;;;;;3.81;55.46;101313.25;4998975;28;20043;-75
2021/03/09 05:02:41;;;;;;;2.47;1.83;;;;;;;3.95;55.51;101314.84;4966157;28;20385;-76
2021/03/09 05:05:07;;;;;;;4.53;2.35;;;;;;;3.95;56.20;101317.50;4967157;28;20046;-75
2021/03/09 05:07:32;;;;;;;8.20;2.10;;;;;;;4.04;56.30;101306.97;4965936;28;20419;-75
2021/03/09 05:09:57;;;;;;;3.65;2.20;;;;;;;4.00;57.00;101312.09;4963387;28;20042;-76
2021/03/09 05:12:23;;;;;;;3.00;2.22;;;;;;;3.97;57.39;101306.56;4967794;28;20117;-75
2021/03/09 05:14:48;;;;;;;5.70;2.22;;;;;;;3.79;58.17;101320.75;4967887;28;20038;-75
2021/03/09 05:17:14;;;;;;;7.85;2.22;;;;;;;3.56;59.80;101311.81;4968851;28;20057;-76
2021/03/09 05:19:39;;;;;;;4.10;2.10;;;;;;;3.53;59.89;101313.19;4962041;28;20058;-75
2021/03/09 05:22:05;;;;;;;5.45;2.90;;;;;;;3.68;60.06;101302.25;4966956;28;20023;-76
2021/03/09 05:24:31;;;;;;;4.85;2.67;;;;;;;3.73;60.03;101303.25;4966770;28;20051;-75
2021/03/09 05:26:56;;;;;;;7.07;2.60;;;;;;;3.43;61.01;101308.00;4962101;28;20034;-75
2021/03/09 05:29:22;;;;;;;5.75;2.60;;;;;;;3.47;61.62;101308.22;4965781;28;20129;-77
2021/03/09 05:31:47;;;;;;;6.70;2.60;;;;;;;3.19;62.52;101304.69;4966319;28;20498;-75
2021/03/09 05:34:12;;;;;;;4.93;2.47;;;;;;;3.07;63.25;101309.63;4972684;28;20093;-75
2021/03/09 05:36:38;;;;;;;4.93;2.60;;;;;;;3.06;64.54;101320.56;4966482;28;20035;-75
2021/03/09 05:39:04;;;;;;;4.47;2.58;;;;;;;2.87;64.34;101323.19;4946671;28;20078;-75
2021/03/09 05:41:29;;;;;;;6.38;2.60;;;;;;;2.80;65.26;101314.81;4963840;28;20479;-75
2021/03/09 05:43:55;;;;;;;4.82;2.10;;;;;;;2.95;64.65;101314.59;4968004;28;20037;-77
2021/03/09 05:46:21;;;;;;;3.35;2.05;;;;;;;2.84;65.30;101310.50;4963496;28;20034;-76
2021/03/09 05:48:47;;;;;;;3.63;2.08;;;;;;;2.73;65.66;101309.81;4963254;28;20415;-76
2021/03/09 05:51:13;;;;;;;5.25;2.22;;;;;;;2.90;65.52;101308.56;4964942;28;20043;-75
2021/03/09 05:53:39;;;;;;;7.78;2.53;;;;;;;2.94;65.61;101315.69;4967452;28;20089;-75
2021/03/09 05:56:04;;;;;;;6.60;2.72;;;;;;;2.86;65.38;101318.19;4962544;28;20526;-76
2021/03/09 05:58:31;;;;;;;4.20;2.28;;;;;;;2.89;65.84;101328.22;4959131;28;20038;-76
2021/03/09 06:00:56;;;;;;;7.90;2.50;;;;;;;2.92;65.54;101325.81;4965327;28;20042;-76
2021/03/09 06:03:25;;;;;;;3.38;2.20;;;;;;;2.81;65.23;101321.69;4962383;28;20034;-75
2021/03/09 06:05:50;;;;;;;4.15;2.85;;;;;;;2.61;66.40;101320.06;4976955;28;20049;-75
2021/03/09 06:08:16;;;;;;;5.35;2.30;;;;;;;2.60;66.55;101321.16;4961441;28;20031;-75
2021/03/09 06:10:42;;;;;;;4.32;2.15;;;;;;;2.64;65.28;101310.75;4967530;28;20161;-75
2021/03/09 06:13:07;;;;;;;5.53;2.80;;;;;;;2.73;67.47;101314.34;4970716;28;20054;-75
2021/03/09 06:15:51;;;;;;;4.50;2.20;;;;;;;2.76;66.33;101327.09;4969904;28;20398;-75
2021/03/09 06:18:23;;;;;;;4.72;2.22;;;;;;;2.89;65.70;101322.91;4962475;28;20451;-76
2021/03/09 06:20:49;;;;;;;4.40;1.95;;;;;;;2.86;65.61;101326.16;4969034;28;20034;-75
2021/03/09 06:23:26;;;;;;;5.68;2.13;;;;;;;3.03;65.25;101329.09;4964089;28;20037;-77
2021/03/09 06:25:51;;;;;;;6.55;2.70;;;;;;;2.89;64.78;101323.72;4971545;28;20038;-76
2021/03/09 06:28:29;;;;;;;3.70;2.10;;;;;;;2.92;65.97;101325.81;4967343;28;20053;-75
2021/03/09 06:30:54;;;;;;;6.13;2.50;;;;;;;3.19;65.10;101325.16;4968587;28;20043;-75
2021/03/09 06:33:27;;;;;;;2.85;1.98;;;;;;;2.99;66.74;101323.56;4967073;28;20466;-76
2021/03/09 06:35:53;;;;;;;3.80;2.30;;;;;;;2.77;69.06;101322.56;4969455;28;20031;-76
2021/03/09 06:38:24;;;;;;;5.10;2.65;;;;;;;2.38;72.44;101323.53;4969984;28;20062;-75
2021/03/09 06:41:04;;;;;;;6.43;2.65;;;;;;;2.46;72.87;101314.16;4964330;28;20034;-76
2021/03/09 06:43:50;;;;;;;3.67;2.35;;;;;;;2.63;72.95;101314.50;4962310;28;20031;-75
2021/03/09 06:46:21;;;;;;;6.88;2.10;;;;;;;2.61;73.75;101320.06;4890284;29;20067;-76
2021/03/09 06:48:49;;;;;;;3.53;2.25;;;;;;;2.73;73.81;101330.28;4887935;29;20103;-76
2021/03/09 06:51:43;;;;;;;5.22;2.28;;;;;;;3.07;72.85;101320.28;4886128;29;20051;-74
2021/03/09 06:54:10;;;;;;;3.17;2.20;;;;;;;2.62;73.93;101329.66;4873024;29;20128;-75
2021/03/09 06:56:39;;;;;;;4.70;2.42;;;;;;;2.41;77.94;101327.50;4886836;29;20504;-75
2021/03/09 06:59:23;;;;;;;3.70;2.28;;;;;;;2.65;77.92;101328.28;4886142;29;20048;-75
2021/03/09 07:02:05;;;;;;;4.63;2.50;;;;;;;2.99;77.09;101322.78;4888429;29;20064;-74
2021/03/09 07:04:30;;;;;;;4.25;2.33;;;;;;;2.94;78.34;101325.53;4890926;29;20108;-75
2021/03/09 07:06:56;;;;;;;6.85;2.67;;;;;;;2.78;79.95;101326.78;4884733;29;20036;-75
2021/03/09 07:09:21;;;;;;;4.55;2.90;;;;;;;2.87;80.48;101320.53;4876565;29;20036;-75
2021/03/09 07:11:49;;;;;;;6.78;3.05;;;;;;;2.52;81.76;101323.66;4888481;29;20076;-74
2021/03/09 07:14:16;;;;;;;5.90;2.97;;;;;;;2.71;83.19;101321.81;4890389;29;20036;-75
2021/03/09 07:16:47;;;;;;;9.20;2.83;;;;;;;2.73;84.20;101320.47;4892704;29;20049;-75
2021/03/09 07:19:22;;;;;;;4.93;3.00;;;;;;;2.36;85.47;101322.28;4887453;29;20041;-74
2021/03/09 07:21:48;;;;;;;7.03;2.65;;;;;;;2.64;85.21;101316.06;4888652;29;20079;-75
2021/03/09 07:24:16;;;;;;;4.57;2.67;;;;;;;2.68;85.46;101317.09;4955385;28;20563;-74
2021/03/09 07:26:41;;;;;;;6.95;2.92;;;;;;;2.46;87.50;101322.13;4962405;28;20074;-74
2021/03/09 07:29:11;;;;;;;6.10;2.92;;;;;;;2.51;87.67;101319.44;4971003;28;20060;-75
2021/03/09 07:31:40;;;;;;;5.88;2.60;;;;;;;2.52;87.87;101313.03;4967176;28;20119;-74
2021/03/09 07:34:06;;;;;;;6.50;2.80;;;;;;;2.88;86.48;101319.47;4967327;28;20046;-75
2021/03/09 07:36:33;;;;;;;6.07;2.63;;;;;;;2.87;86.28;101314.44;4967953;28;20039;-74
2021/03/09 07:38:59;;;;;;;3.63;2.60;;;;;;;2.58;87.20;101320.66;4966244;28;20043;-74
2021/03/09 07:41:25;;;;;;;4.68;2.80;;;;;;;2.50;87.71;101321.28;4980569;28;20093;-74
2021/03/09 07:43:50;;;;;;;6.40;3.28;;;;;;;2.66;86.85;101319.22;4972391;28;20300;-74
2021/03/09 07:46:16;;;;;;;6.10;2.83;;;;;;;2.74;86.34;101318.59;4967968;28;20077;-74
2021/03/09 07:49:02;;;;;;;6.40;3.22;;;;;;;2.44;88.51;101313.69;4968978;28;20521;-74
2021/03/09 07:51:27;;;;;;;4.68;2.65;;;;;;;2.59;89.98;101321.47;4912528;29;20512;-74
2021/03/09 07:54:08;;;;;;;5.05;2.90;;;;;;;2.58;89.36;101317.19;4909305;29;20044;-75
2021/03/09 07:56:33;;;;;;;7.25;2.80;;;;;;;2.57;89.09;101312.97;4911484;29;20607;-74
2021/03/09 07:59:06;;;;;;;7.75;3.22;;;;;;;2.35;89.46;101316.16;4911889;29;20484;-75
2021/03/09 08:01:44;;;;;;;7.43;2.90;;;;;;;2.47;90.29;101310.44;4912291;29;20043;-75
2021/03/09 08:04:10;;;;;;;6.05;3.13;;;;;;;2.61;89.72;101311.34;4897786;29;20540;-75
2021/03/09 08:06:43;;;;;;;8.23;3.47;;;;;;;2.62;89.80;101308.38;4911693;29;20040;-75
2021/03/09 08:09:55;;;;;;;4.13;2.95;;;;;;;2.56;91.03;101316.69;4914559;29;20048;-75
2021/03/09 08:12:24;;;;;;;10.93;3.58;;;;;;;2.53;90.67;101312.75;4909478;29;20476;-75
2021/03/09 08:14:49;;;;;;;6.07;3.30;;;;;;;2.91;90.43;101313.59;4912403;29;20123;-74
2021/03/09 08:17:27;;;;;;;4.97;2.95;;;;;;;3.01;89.37;101313.44;4910813;29;20576;-74
2021/03/09 08:19:53;;;;;;;6.13;3.20;;;;;;;3.31;87.67;101307.66;4907686;29;20105;-75
2021/03/09 08:22:36;;;;;;;6.82;3.47;;;;;;;3.29;87.24;101307.16;4911370;29;20548;-75
2021/03/09 08:25:02;;;;;;;6.88;3.35;;;;;;;3.37;86.24;101311.03;4910569;29;20720;-75
2021/03/09 08:30:24;;;;;;;6.88;3.50;;;;;;;3.25;87.20;101303.50;4964975;28;20353;-76
2021/03/09 08:32:50;;;;;;;6.35;3.55;;;;;;;3.37;87.24;101298.53;4965991;28;20067;-77
2021/03/09 08:35:16;;;;;;;6.70;3.83;;;;;;;3.51;86.72;101298.56;4966695;28;20030;-77
2021/03/09 08:37:43;;;;;;;6.20;3.35;;;;;;;3.55;86.10;101302.22;4969301;28;20551;-77
2021/03/09 08:40:14;;;;;;;7.68;3.95;;;;;;;2.89;86.09;101302.44;4971222;28;20574;-75
2021/03/09 08:42:58;;;;;;;9.15;3.92;;;;;;;2.70;90.89;101299.78;4971342;28;20039;-77
2021/03/09 08:45:39;;;;;;;7.68;4.13;;;;;;;2.90;91.16;101298.72;4972174;28;20026;-77
2021/03/09 08:48:06;;;;;;;7.90;4.40;;;;;;;3.04;90.51;101290.81;4967626;28;20114;-77
2021/03/09 08:50:48;;;;;;;7.45;3.67;;;;;;;3.11;90.17;101296.53;4965646;28;20022;-75
2021/03/09 08:53:34;;;;;;;7.45;3.95;;;;;;;3.05;90.06;101292.38;4971839;28;20031;-75
2021/03/09 08:56:04;;;;;;;8.93;3.95;;;;;;;3.05;89.26;101293.19;4968352;28;20104;-75
2021/03/09 08:58:32;;;;;;;7.13;4.07;;;;;;;3.35;88.19;101290.03;4967696;28;20038;-76
2021/03/09 09:00:58;;;;;;;10.48;4.18;;;;;;;3.41;87.78;101294.19;4965313;28;20458;-77
2021/03/09 09:03:37;;;;;;;10.32;4.25;;;;;;;3.78;86.83;101287.19;4966052;28;20069;-77
2021/03/09 09:06:04;;;;;;;8.88;4.40;;;;;;;3.65;86.14;101294.06;4964522;28;20047;-77
2021/03/09 09:08:30;;;;;;;7.43;3.88;;;;;;;3.42;86.94;101293.13;4968007;28;20610;-75
2021/03/09 09:10:57;;;;;;;8.02;4.38;;;;;;;3.49;87.23;101285.56;4971291;28;20023;-77
2021/03/09 09:13:30;;;;;;;8.32;4.40;;;;;;;3.76;86.55;101295.47;4970587;28;20041;-77
2021/03/09 09:15:56;;;;;;;6.88;3.78;;;;;;;3.73;86.06;101290.75;4981804;28;20101;-77
2021/03/09 09:18:22;;;;;;;8.82;4.55;;;;;;;3.92;86.31;101288.81;4967611;28;20483;-75
2021/03/09 09:20:49;;;;;;;8.15;4.45;;;;;;;3.49;85.80;101290.88;4966977;28;20487;-77
2021/03/09 09:23:20;;;;;;;8.05;4.13;;;;;;;3.74;85.83;101292.31;4970962;28;20093;-77
2021/03/09 09:25:49;;;;;;;9.65;4.03;;;;;;;4.20;82.93;101286.94;4984841;28;20093;-77
2021/03/09 09:28:31;;;;;;;7.38;3.97;;;;;;;3.67;84.90;101290.06;4968605;28;20062;-77
2021/03/09 09:31:01;;;;;;;6.82;3.70;;;;;;;3.61;86.07;101288.56;4968918;28;20138;-77
2021/03/09 09:33:29;;;;;;;8.38;4.18;;;;;;;3.92;84.94;101291.47;4971671;28;20140;-77
2021/03/09 09:35:57;;;;;;;8.02;4.38;;;;;;;4.01;84.01;101289.69;4973764;28;20038;-77
2021/03/09 09:38:23;;;;;;;6.03;4.00;;;;;;;4.05;84.64;101289.88;4971914;28;20595;-77
2021/03/09 09:40:58;;;;;;;8.73;4.65;;;;;;;4.27;82.94;101285.47;4971943;28;20404;-77
2021/03/09 09:43:29;;;;;;;9.20;4.43;;;;;;;3.96;83.65;101287.13;4987295;28;20118;-76
2021/03/09 09:46:31;;;;;;;10.32;4.70;;;;;;;4.02;83.06;101293.94;4974736;28;20491;-77
2021/03/09 09:48:57;;;;;;;10.73;4.72;;;;;;;4.14;83.65;101280.91;4975372;28;20039;-76
2021/03/09 09:51:26;;;;;;;9.13;4.18;;;;;;;4.22;84.04;101290.13;4972942;28;20034;-75
2021/03/09 09:53:53;;;;;;;9.82;5.32;;;;;;;4.09;83.74;101296.22;4969110;28;20034;-76
2021/03/09 09:56:18;;;;;;;8.65;4.50;;;;;;;3.95;82.29;101298.09;4968693;28;20034;-76
2021/03/09 09:58:52;;;;;;;9.48;4.80;;;;;;;4.05;83.53;101292.56;4969397;28;20039;-76
2021/03/09 10:01:21;;;;;;;10.38;4.70;;;;;;;4.21;82.44;101307.16;4969091;28;20085;-76
2021/03/09 10:03:54;;;;;;;8.85;5.18;;;;;;;4.24;82.27;101295.94;4981255;28;20483;-75
2021/03/09 10:06:21;;;;;;;12.23;5.10;;;;;;;4.57;80.86;101297.38;4967578;28;20043;-76
2021/03/09 10:08:46;;;;;;;9.05;4.78;;;;;;;4.33;80.51;101304.81;4982940;28;20085;-76
2021/03/09 10:11:13;;;;;;;11.35;5.40;;;;;;;4.18;80.76;101303.22;4965470;28;20078;-75
2021/03/09 10:13:38;;;;;;;11.38;5.53;;;;;;;4.51;80.37;101301.22;4965400;28;20735;-76
2021/03/09 10:16:04;;;;;;;11.57;5.20;;;;;;;4.31;80.33;101302.44;4980958;28;20110;-77
2021/03/09 10:18:33;;;;;;;8.98;4.63;;;;;;;4.59;79.70;101297.88;4968177;28;20065;-76
2021/03/09 10:21:15;;;;;;;10.43;4.97;;;;;;;4.25;79.10;101297.50;4963617;28;20110;-76
2021/03/09 10:23:59;;;;;;;9.45;4.45;;;;;;;4.08;80.30;101299.97;4972219;28;20070;-77
2021/03/09 10:26:27;;;;;;;11.15;4.72;;;;;;;4.06;79.82;101294.16;4967974;28;20035;-77
2021/03/09 10:29:03;;;;;;;8.23;4.25;;;;;;;4.09;80.76;101290.88;4971356;28;20061;-77
2021/03/09 10:31:55;;;;;;;9.10;4.53;;;;;;;4.29;79.67;101291.28;4971922;28;20185;-76
2021/03/09 10:34:35;;;;;;;11.85;4.75;;;;;;;4.43;80.10;101291.28;4971360;28;20041;-76
2021/03/09 10:37:02;;;;;;;11.32;4.95;;;;;;;4.59;78.81;101295.19;4969013;28;20046;-75
2021/03/09 10:39:30;;;;;;;9.95;4.88;;;;;;;4.37;79.45;101293.28;4970365;28;20035;-75
2021/03/09 10:41:57;;;;;;;10.82;4.97;;;;;;;4.40;78.85;101297.19;4971471;28;20039;-76
2021/03/09 10:44:34;;;;;;;9.70;5.18;;;;;;;4.41;79.13;101296.13;4973330;28;20401;-76
2021/03/09 10:47:01;;;;;;;13.18;4.80;;;;;;;4.32;79.25;101292.56;4970097;28;20035;-77
2021/03/09 10:49:31;;;;;;;11.55;5.85;;;;;;;4.29;79.42;101293.97;4966682;28;20038;-75
2021/03/09 10:52:01;;;;;;;13.02;5.63;;;;;;;4.19;81.67;101290.69;4970372;28;20045;-77
2021/03/09 10:54:26;;;;;;;11.35;5.75;;;;;;;4.18;82.00;101295.22;4969665;28;20411;-76
2021/03/09 10:56:52;;;;;;;15.73;6.28;;;;;;;4.29;81.76;101287.84;4971311;28;20039;-77
2021/03/09 10:59:17;;;;;;;10.95;5.57;;;;;;;4.44;81.47;101290.97;4970086;28;20034;-76
2021/03/09 11:01:43;;;;;;;19.52;6.88;;;;;;;4.36;81.55;101290.88;4972980;28;20507;-75
2021/03/09 11:04:09;;;;;;;22.88;8.93;;;;;;;3.98;83.53;101287.63;4970393;28;20034;-76
2021/03/09 11:06:34;;;;;;;21.50;7.93;;;;;;;4.16;83.85;101293.97;4976112;28;20502;-76
2021/03/09 11:08:59;;;;;;;14.20;6.82;;;;;;;4.39;83.35;101291.06;4973238;28;20086;-76
2021/03/09 11:11:25;;;;;;;22.65;7.45;;;;;;;4.61;83.09;101293.03;4972829;28;20137;-75
2021/03/09 11:13:50;;;;;;;9.65;4.78;;;;;;;4.76;79.92;101289.25;4972418;28;20050;-76
2021/03/09 11:16:16;;;;;;;10.32;5.05;;;;;;;4.40;79.86;101278.53;4972683;28;20582;-74
2021/03/09 11:18:43;;;;;;;13.18;5.18;;;;;;;4.41;80.81;101285.47;4972983;28;20595;-76
2021/03/09 11:21:08;;;;;;;10.48;5.43;;;;;;;4.81;80.35;101275.81;4971930;28;20027;-77
2021/03/09 11:23:33;;;;;;;11.88;5.18;;;;;;;4.43;81.17;101277.97;4972515;28;20046;-77
2021/03/09 11:25:59;;;;;;;12.00;5.63;;;;;;;4.46;81.93;101278.16;4970970;28;20033;-77
2021/03/09 11:28:24;;;;;;;8.07;4.68;;;;;;;4.76;81.78;101281.25;4969943;28;20514;-75
2021/03/09 11:30:50;;;;;;;10.75;4.90;;;;;;;4.95;80.93;101281.91;4971566;28;20085;-76
2021/03/09 11:33:15;;;;;;;10.88;5.28;;;;;;;4.95;80.78;101288.03;4972252;28;20700;-76
2021/03/09 11:35:41;;;;;;;11.13;5.20;;;;;;;4.61;80.19;101289.59;4971957;28;20038;-76
2021/03/09 11:38:06;;;;;;;14.38;5.03;;;;;;;4.88;79.57;101282.28;4967820;28;20113;-77
2021/03/09 11:40:32;;;;;;;8.57;4.85;;;;;;;4.72;79.76;101286.41;4972570;28;20035;-75
2021/03/09 11:42:57;;;;;;;12.52;5.55;;;;;;;4.88;80.19;101284.19;4973226;28;20443;-76
2021/03/09 11:45:23;;;;;;;10.73;5.53;;;;;;;4.81;80.64;101278.47;4973698;28;20403;-77